Time;durP1;ratioP1;P1;durP2;ratioP2;P2;SDS_P1;SDS_P2;PMS_P1;PMS_P2;Temp;Humidity;BMP_temperature;BMP_pressure;BME280_temperature;BME280_humidity;BME280_pressure;Samples;Min_cycle;Max_cycle;Signal;HPM_P1;HPM_P2
2022/03/11 00:00:28;;;;;;;9.25;5.03;;;;;;;3.53;78.72;102158.56;5042622;28;20029;-77
2022/03/11 00:02:54;;;;;;;6.38;4.03;;;;;;;3.45;79.19;102139.81;5053915;28;20161;-78
2022/03/11 00:05:19;;;;;;;9.90;4.22;;;;;;;3.45;78.80;102148.47;5039500;28;20024;-78
2022/03/11 00:07:45;;;;;;;7.75;4.93;;;;;;;3.42;79.25;102134.72;5055590;28;20043;-77
2022/03/11 00:10:10;;;;;;;10.20;3.65;;;;;;;3.21;79.53;102121.75;5059174;28;20039;-77
2022/03/11 00:12:37;;;;;;;8.40;5.00;;;;;;;3.35;80.26;102141.97;5041824;28;20355;-78
2022/03/11 00:15:05;;;;;;;7.00;3.58;;;;;;;3.26;79.83;102125.00;5056277;28;20078;-78
2022/03/11 00:17:30;;;;;;;9.55;4.80;;;;;;;3.25;80.24;102123.31;5053086;28;20032;-77
2022/03/11 00:19:55;;;;;;;7.65;4.20;;;;;;;3.22;79.96;102117.38;5040011;28;20379;-77
2022/03/11 00:22:21;;;;;;;11.15;5.22;;;;;;;3.35;80.06;102138.53;5038600;28;20068;-77
2022/03/11 00:24:46;;;;;;;8.25;5.32;;;;;;;3.30;80.60;102136.16;5055259;28;20055;-77
2022/03/11 00:27:12;;;;;;;12.50;4.82;;;;;;;3.26;81.26;102145.88;5053907;28;20110;-77
2022/03/11 00:29:37;;;;;;;8.52;4.97;;;;;;;3.28;80.56;102144.03;5056239;28;20032;-77
2022/03/11 00:32:03;;;;;;;12.10;5.60;;;;;;;3.33;80.73;102142.97;5057373;28;20036;-77
2022/03/11 00:34:28;;;;;;;11.77;5.45;;;;;;;3.32;80.90;102138.69;5058015;28;20049;-77
2022/03/11 00:36:54;;;;;;;11.13;5.65;;;;;;;3.28;81.38;102138.81;5057603;28;20121;-77
2022/03/11 00:39:19;;;;;;;11.23;5.00;;;;;;;3.27;81.51;102137.13;5041172;28;20037;-77
2022/03/11 00:41:44;;;;;;;9.25;5.30;;;;;;;3.19;81.70;102125.38;5056580;28;20438;-77
2022/03/11 00:44:10;;;;;;;7.35;4.55;;;;;;;3.23;80.94;102132.97;5057753;28;20036;-77
2022/03/11 00:46:36;;;;;;;10.82;5.88;;;;;;;3.02;81.16;102100.88;5055993;28;20032;-77
2022/03/11 00:49:01;;;;;;;10.48;6.03;;;;;;;3.21;81.45;102131.38;5056169;28;20052;-78
2022/03/11 00:51:26;;;;;;;11.25;5.18;;;;;;;3.11;81.76;102120.47;5056435;28;20086;-77
2022/03/11 00:53:52;;;;;;;11.93;5.30;;;;;;;3.23;82.05;102125.16;5021339;28;20369;-78
2022/03/11 00:56:17;;;;;;;11.70;6.25;;;;;;;3.22;81.57;102133.91;5037153;28;20247;-77
2022/03/11 00:58:45;;;;;;;16.42;6.35;;;;;;;3.24;82.02;102126.81;5038253;28;20033;-77
2022/03/11 01:01:10;;;;;;;12.60;5.28;;;;;;;3.22;82.10;102122.59;5056662;28;20086;-77
2022/03/11 01:03:36;;;;;;;10.68;6.18;;;;;;;3.26;81.53;102118.94;5040939;28;20037;-77
2022/03/11 01:06:01;;;;;;;12.75;6.72;;;;;;;3.09;81.47;102097.09;5058451;28;20489;-78
2022/03/11 01:08:27;;;;;;;13.02;7.88;;;;;;;3.26;81.14;102118.94;5061601;28;20024;-77
2022/03/11 01:10:52;;;;;;;10.70;6.05;;;;;;;3.26;81.48;102114.56;5059890;28;20029;-77
2022/03/11 01:13:17;;;;;;;11.23;5.97;;;;;;;3.30;81.37;102115.28;5061557;28;20029;-77
2022/03/11 01:15:43;;;;;;;11.68;6.60;;;;;;;3.14;81.44;102096.88;5059762;28;20480;-78
2022/03/11 01:18:08;;;;;;;13.45;6.03;;;;;;;3.14;81.39;102083.00;5059811;28;20067;-78
2022/03/11 01:20:34;;;;;;;15.40;7.75;;;;;;;3.33;80.50;102101.22;5061190;28;20333;-78
2022/03/11 01:22:59;;;;;;;14.63;7.43;;;;;;;3.29;80.47;102104.00;5061409;28;20056;-78
2022/03/11 01:25:24;;;;;;;14.05;7.13;;;;;;;3.21;81.55;102095.69;5026433;28;20032;-78
2022/03/11 01:27:50;;;;;;;13.13;6.72;;;;;;;3.19;80.59;102073.19;5040291;28;20422;-78
2022/03/11 01:30:16;;;;;;;11.43;6.40;;;;;;;3.32;81.06;102112.59;5056733;28;20033;-77
2022/03/11 01:32:42;;;;;;;14.63;7.80;;;;;;;3.30;81.14;102095.25;5060137;28;20082;-77
2022/03/11 01:35:08;;;;;;;12.45;6.00;;;;;;;3.33;81.31;102098.63;5059826;28;20108;-77
2022/03/11 01:37:34;;;;;;;12.90;7.32;;;;;;;3.15;81.08;102076.84;5060779;28;20035;-77
2022/03/11 01:39:59;;;;;;;12.10;7.20;;;;;;;3.29;80.88;102104.00;5059003;28;20024;-77
2022/03/11 01:42:25;;;;;;;12.95;7.47;;;;;;;3.27;80.82;102091.94;5025217;28;20396;-77
2022/03/11 01:44:52;;;;;;;15.07;8.60;;;;;;;3.14;81.10;102078.63;5043162;28;20453;-77
2022/03/11 01:47:18;;;;;;;15.98;9.10;;;;;;;3.08;81.50;102058.03;5059824;28;20041;-78
2022/03/11 01:49:44;;;;;;;10.73;6.28;;;;;;;3.15;81.35;102080.31;5060250;28;20138;-78
2022/03/11 01:52:11;;;;;;;15.85;8.70;;;;;;;3.14;80.97;102068.19;5057506;28;20028;-78
2022/03/11 01:54:41;;;;;;;17.50;7.60;;;;;;;3.16;81.81;102084.63;5058534;28;20522;-78
2022/03/11 01:57:06;;;;;;;21.70;8.82;;;;;;;3.12;81.36;102077.00;5059436;28;20095;-78
2022/03/11 01:59:32;;;;;;;16.30;8.15;;;;;;;3.11;82.03;102072.69;5061880;28;20032;-78
2022/03/11 02:01:57;;;;;;;14.98;8.90;;;;;;;3.07;82.16;102079.81;5059193;28;20056;-77
2022/03/11 02:04:22;;;;;;;16.00;8.80;;;;;;;3.05;82.27;102064.25;5059339;28;20039;-77
2022/03/11 02:06:49;;;;;;;18.88;8.25;;;;;;;3.02;82.57;102077.41;5059038;28;20540;-78
2022/03/11 02:09:14;;;;;;;15.27;8.98;;;;;;;2.93;82.35;102058.75;5059703;28;20392;-78
2022/03/11 02:11:40;;;;;;;14.65;8.25;;;;;;;2.94;82.00;102061.31;5040107;28;20453;-77
2022/03/11 02:14:05;;;;;;;13.32;7.57;;;;;;;2.93;82.68;102074.41;5055904;28;20043;-77
2022/03/11 02:16:32;;;;;;;16.35;9.73;;;;;;;2.81;82.60;102044.50;5060131;28;20024;-77
2022/03/11 02:18:59;;;;;;;14.00;7.78;;;;;;;2.79;82.94;102057.63;5056775;28;20202;-77
2022/03/11 02:21:27;;;;;;;15.32;8.98;;;;;;;2.79;83.12;102057.63;5058376;28;20063;-77
2022/03/11 02:23:52;;;;;;;19.35;9.18;;;;;;;2.77;83.30;102059.47;5057445;28;20544;-77
2022/03/11 02:26:19;;;;;;;21.55;13.18;;;;;;;2.74;83.74;102054.38;5058577;28;20440;-77
2022/03/11 02:28:47;;;;;;;18.50;9.05;;;;;;;2.62;83.13;102026.25;5057721;28;20036;-78
2022/03/11 02:31:13;;;;;;;19.80;9.70;;;;;;;2.61;83.47;102034.97;5055739;28;20028;-78
2022/03/11 02:33:39;;;;;;;17.30;9.35;;;;;;;2.63;84.11;102040.97;5058272;28;20037;-78
2022/03/11 02:36:05;;;;;;;22.30;11.20;;;;;;;2.64;83.23;102037.47;5056856;28;20040;-77
2022/03/11 02:38:31;;;;;;;19.38;10.18;;;;;;;2.60;83.28;102038.53;5063030;28;20031;-78
2022/03/11 02:40:56;;;;;;;19.15;10.32;;;;;;;2.56;83.97;102039.56;5056222;28;20024;-78
2022/03/11 02:43:23;;;;;;;19.45;9.98;;;;;;;2.51;83.66;102036.34;5060196;28;20227;-78
2022/03/11 02:45:49;;;;;;;14.10;8.15;;;;;;;2.51;84.03;102034.56;5057255;28;20021;-78
2022/03/11 02:48:14;;;;;;;21.15;11.23;;;;;;;2.46;84.13;102006.13;5055918;28;20036;-77
2022/03/11 02:50:40;;;;;;;19.88;10.82;;;;;;;2.49;83.69;102028.56;5059537;28;20108;-77
2022/03/11 02:53:05;;;;;;;23.02;12.48;;;;;;;2.37;83.70;102003.06;5056994;28;20056;-77
2022/03/11 02:55:30;;;;;;;18.33;10.18;;;;;;;2.45;84.28;102017.44;5058654;28;20074;-77
2022/03/11 02:57:56;;;;;;;23.83;10.23;;;;;;;2.39;84.57;102020.31;5056919;28;20457;-77
2022/03/11 03:00:22;;;;;;;16.23;8.88;;;;;;;2.35;84.20;102004.88;5059845;28;20379;-77
2022/03/11 03:02:47;;;;;;;19.73;9.93;;;;;;;2.19;84.34;101986.50;5056825;28;20029;-77
2022/03/11 03:05:13;;;;;;;21.60;11.00;;;;;;;2.22;84.25;101988.94;5054420;28;20052;-77
2022/03/11 03:07:39;;;;;;;22.88;10.05;;;;;;;2.17;84.98;101988.31;5057377;28;20033;-77
2022/03/11 03:10:05;;;;;;;18.25;9.38;;;;;;;2.20;85.13;102004.66;5038910;28;20086;-77
2022/03/11 03:12:31;;;;;;;22.52;10.82;;;;;;;2.19;84.94;101999.50;5056460;28;20037;-77
2022/03/11 03:14:56;;;;;;;17.33;9.35;;;;;;;2.15;84.99;101998.78;5056135;28;20029;-77
2022/03/11 03:17:22;;;;;;;19.27;9.88;;;;;;;2.13;85.48;102015.41;5057515;28;20024;-77
2022/03/11 03:19:48;;;;;;;18.95;9.15;;;;;;;2.10;85.49;102010.34;5057733;28;20032;-77
2022/03/11 03:22:14;;;;;;;15.43;8.45;;;;;;;2.08;85.01;102007.78;5055442;28;20041;-77
2022/03/11 03:24:40;;;;;;;16.45;8.40;;;;;;;2.04;85.56;102007.06;5057772;28;20385;-76
2022/03/11 03:27:05;;;;;;;18.75;9.65;;;;;;;1.98;85.04;101988.25;5058621;28;20029;-77
2022/03/11 03:29:30;;;;;;;19.15;11.30;;;;;;;1.85;85.34;101974.94;5022162;28;20029;-77
2022/03/11 03:31:58;;;;;;;19.23;9.90;;;;;;;1.80;85.23;101972.53;5056335;28;20032;-77
2022/03/11 03:34:34;;;;;;;21.95;11.93;;;;;;;1.81;84.94;101976.00;5035948;28;20033;-77
2022/03/11 03:37:01;;;;;;;24.02;13.32;;;;;;;1.71;85.50;101962.50;5059408;28;20025;-77
2022/03/11 03:39:27;;;;;;;13.05;8.13;;;;;;;1.85;85.00;102000.97;5054063;28;20017;-77
2022/03/11 03:41:54;;;;;;;13.68;8.88;;;;;;;1.82;85.46;101980.28;5053162;28;20040;-77
2022/03/11 03:44:20;;;;;;;13.57;8.10;;;;;;;1.82;85.33;101994.13;5058003;28;20024;-77
2022/03/11 03:46:46;;;;;;;20.13;11.48;;;;;;;1.78;84.71;101981.31;5057034;28;20035;-77
2022/03/11 03:49:12;;;;;;;20.23;11.13;;;;;;;1.77;85.01;101987.44;5035833;28;20033;-77
2022/03/11 03:51:40;;;;;;;20.40;10.07;;;;;;;1.73;85.37;101985.88;5054649;28;20033;-77
2022/03/11 03:54:09;;;;;;;21.30;11.23;;;;;;;1.69;85.29;101982.56;5057992;28;20033;-77
2022/03/11 03:56:36;;;;;;;17.13;10.20;;;;;;;1.64;85.85;101985.34;5055056;28;20053;-77
2022/03/11 03:59:05;;;;;;;17.45;10.00;;;;;;;1.59;85.54;101992.50;5059884;28;20086;-77
2022/03/11 04:01:35;;;;;;;22.20;12.05;;;;;;;1.55;85.62;101990.94;5054281;28;20558;-77
2022/03/11 04:04:02;;;;;;;17.50;9.50;;;;;;;1.53;85.74;101990.16;5058418;28;20036;-77
2022/03/11 04:06:29;;;;;;;19.30;10.35;;;;;;;1.48;85.81;101989.53;5058903;28;20090;-77
2022/03/11 04:08:56;;;;;;;20.63;9.70;;;;;;;1.49;85.87;101983.38;5058023;28;20032;-77
2022/03/11 04:11:26;;;;;;;21.65;11.18;;;;;;;1.46;85.68;101987.88;5054803;28;20025;-77
2022/03/11 04:13:52;;;;;;;17.83;9.55;;;;;;;1.40;85.94;101987.22;5050562;28;20048;-77
2022/03/11 04:16:18;;;;;;;18.33;10.02;;;;;;;1.22;86.21;101965.41;5053386;28;20013;-77
2022/03/11 04:18:44;;;;;;;20.88;11.13;;;;;;;1.26;86.37;101973.06;5050604;28;20025;-77
2022/03/11 04:21:10;;;;;;;24.17;12.30;;;;;;;1.30;86.55;101972.88;5058817;28;20025;-77
2022/03/11 04:23:35;;;;;;;20.30;9.45;;;;;;;1.26;86.22;101980.88;5055193;28;20046;-77
2022/03/11 04:26:01;;;;;;;19.63;10.10;;;;;;;1.22;86.50;101961.97;5057124;28;20033;-77
2022/03/11 04:28:27;;;;;;;18.60;9.90;;;;;;;1.22;86.77;101965.41;5052089;28;20374;-77
2022/03/11 04:30:52;;;;;;;16.00;9.55;;;;;;;1.08;86.64;101931.31;5059605;28;20020;-77
2022/03/11 04:33:18;;;;;;;17.65;9.20;;;;;;;1.20;86.64;101972.44;5060597;28;20481;-77
2022/03/11 04:35:43;;;;;;;18.25;10.45;;;;;;;1.06;86.54;101940.91;5035924;28;20514;-77
2022/03/11 04:38:09;;;;;;;16.98;9.73;;;;;;;1.15;86.41;101950.94;5056301;28;20402;-77
2022/03/11 04:40:34;;;;;;;19.65;11.13;;;;;;;1.12;86.12;101943.28;5058062;28;20079;-77
2022/03/11 04:43:01;;;;;;;18.13;10.77;;;;;;;1.11;86.33;101959.81;5055164;28;20487;-77
2022/03/11 04:45:27;;;;;;;21.98;11.30;;;;;;;1.09;86.49;101946.00;5051886;28;20024;-77
2022/03/11 04:47:52;;;;;;;18.10;10.15;;;;;;;1.02;86.42;101942.81;5056760;28;20070;-79
2022/03/11 04:50:18;;;;;;;22.67;11.18;;;;;;;1.04;86.62;101940.13;5053964;28;20508;-77
2022/03/11 04:52:43;;;;;;;24.90;10.88;;;;;;;0.98;86.80;101945.56;5058378;28;20032;-77
2022/03/11 04:55:09;;;;;;;16.67;8.63;;;;;;;0.84;86.88;101937.50;5053478;28;20542;-77
2022/03/11 04:57:34;;;;;;;19.67;10.48;;;;;;;0.79;87.11;101933.31;5051051;28;20332;-77
2022/03/11 05:00:00;;;;;;;23.85;10.35;;;;;;;0.91;87.13;101959.72;5050824;28;20333;-77
2022/03/11 05:02:27;;;;;;;19.60;9.15;;;;;;;0.74;87.21;101937.00;5058905;28;20048;-77
2022/03/11 05:04:54;;;;;;;19.27;10.25;;;;;;;0.85;86.87;101955.63;5053388;28;20029;-77
2022/03/11 05:07:19;;;;;;;21.55;11.23;;;;;;;0.78;86.91;101955.03;5056708;28;20120;-77
2022/03/11 05:09:45;;;;;;;23.52;11.30;;;;;;;0.73;87.19;101943.94;5061690;28;20107;-77
2022/03/11 05:12:11;;;;;;;14.50;8.70;;;;;;;0.56;87.12;101920.38;5037738;28;20043;-76
2022/03/11 05:14:37;;;;;;;18.83;10.73;;;;;;;0.70;87.36;101954.47;5046794;28;20025;-77
2022/03/11 05:17:03;;;;;;;16.25;8.77;;;;;;;0.58;87.31;101931.56;5058740;28;20503;-77
2022/03/11 05:19:28;;;;;;;13.60;8.02;;;;;;;0.65;87.46;101958.97;5057664;28;20107;-77
2022/03/11 05:21:54;;;;;;;14.90;9.25;;;;;;;0.60;87.76;101953.13;5049910;28;20125;-77
2022/03/11 05:24:19;;;;;;;14.40;7.80;;;;;;;0.55;87.82;101952.47;5052288;28;20448;-77
2022/03/11 05:26:45;;;;;;;19.48;9.25;;;;;;;0.52;88.31;101947.38;5055382;28;20021;-77
2022/03/11 05:29:10;;;;;;;18.58;8.63;;;;;;;0.47;88.48;101944.09;5055168;28;20463;-77
2022/03/11 05:31:36;;;;;;;23.02;12.65;;;;;;;0.40;88.70;101944.34;5051946;28;20036;-77
2022/03/11 05:34:04;;;;;;;21.13;11.40;;;;;;;0.29;88.37;101930.91;5052138;28;20029;-77
2022/03/11 05:36:30;;;;;;;17.58;10.00;;;;;;;0.34;88.55;101954.94;5051593;28;20449;-77
2022/03/11 05:38:56;;;;;;;14.82;7.68;;;;;;;0.37;88.91;101952.25;5057628;28;20021;-77
2022/03/11 05:41:21;;;;;;;12.18;8.00;;;;;;;0.11;88.65;101910.81;5048529;28;20801;-77
2022/03/11 05:43:46;;;;;;;24.58;11.68;;;;;;;0.22;88.72;101929.44;5028615;28;20345;-77
2022/03/11 05:46:13;;;;;;;21.13;11.10;;;;;;;0.23;88.74;101936.31;5027445;28;20037;-77
2022/03/11 05:48:38;;;;;;;18.70;10.40;;;;;;;0.27;88.99;101947.44;5049393;28;20032;-77
2022/03/11 05:51:03;;;;;;;23.08;11.40;;;;;;;0.25;89.07;101944.91;5046447;28;20497;-78
2022/03/11 05:53:29;;;;;;;14.18;8.60;;;;;;;0.22;88.94;101945.03;5049331;28;20045;-77
2022/03/11 05:55:54;;;;;;;21.73;9.48;;;;;;;0.19;88.95;101934.75;5052615;28;20145;-77
2022/03/11 05:58:20;;;;;;;18.40;11.57;;;;;;;0.18;89.10;101933.91;5046891;28;20583;-77
2022/03/11 06:00:46;;;;;;;19.88;10.48;;;;;;;0.08;89.31;101913.53;5046381;28;20370;-76
2022/03/11 06:03:12;;;;;;;17.98;9.90;;;;;;;0.15;89.05;101936.63;5029822;28;20029;-77
2022/03/11 06:05:37;;;;;;;17.25;8.90;;;;;;;-0.05;89.00;101900.16;5049164;28;20040;-76
2022/03/11 06:08:03;;;;;;;25.00;11.60;;;;;;;0.12;89.01;101921.13;5047873;28;20305;-76
2022/03/11 06:10:28;;;;;;;19.65;10.68;;;;;;;0.13;88.99;101919.38;5050700;28;20032;-78
2022/03/11 06:12:54;;;;;;;16.85;8.60;;;;;;;0.07;88.86;101904.91;5047987;28;20143;-76
2022/03/11 06:15:19;;;;;;;21.23;11.18;;;;;;;0.12;88.96;101918.53;5044621;28;20037;-76
2022/03/11 06:17:44;;;;;;;16.55;8.68;;;;;;;0.07;88.33;101909.25;5028934;28;20114;-76
2022/03/11 06:20:11;;;;;;;16.92;8.38;;;;;;;-0.06;88.41;101901.06;5045313;28;20033;-76
2022/03/11 06:22:37;;;;;;;19.65;10.02;;;;;;;0.05;88.11;101911.06;5027713;28;20045;-77
2022/03/11 06:25:05;;;;;;;21.48;8.48;;;;;;;0.13;88.05;101928.03;5044358;28;20476;-76
2022/03/11 06:27:31;;;;;;;21.80;11.05;;;;;;;0.19;87.97;101930.38;5046576;28;20033;-76
2022/03/11 06:29:56;;;;;;;16.55;8.82;;;;;;;0.10;87.68;101915.16;5047834;28;20599;-76
2022/03/11 06:32:22;;;;;;;15.98;8.68;;;;;;;0.06;88.01;101910.97;5047340;28;20112;-76
2022/03/11 06:34:48;;;;;;;23.95;10.95;;;;;;;0.20;87.77;101941.63;5025871;28;20630;-73
2022/03/11 06:37:15;;;;;;;18.23;8.68;;;;;;;0.19;87.67;101934.75;5044804;28;20025;-73
2022/03/11 06:39:41;;;;;;;16.33;8.90;;;;;;;0.18;87.32;101928.72;5043665;28;20348;-73
2022/03/11 06:42:06;;;;;;;19.33;10.68;;;;;;;0.28;87.24;101941.34;5025888;28;20497;-72
2022/03/11 06:44:32;;;;;;;18.23;8.85;;;;;;;0.22;86.86;101921.66;5043987;28;20116;-72
2022/03/11 06:46:57;;;;;;;16.60;9.25;;;;;;;0.33;86.84;101931.66;5049006;28;20416;-72
2022/03/11 06:49:23;;;;;;;13.60;6.45;;;;;;;0.37;86.64;101939.25;5046281;28;20082;-74
2022/03/11 06:51:48;;;;;;;22.00;8.50;;;;;;;0.40;86.24;101939.13;5061647;28;20025;-74
2022/03/11 06:54:14;;;;;;;17.25;9.35;;;;;;;0.38;86.09;101924.53;5060822;28;20431;-72
2022/03/11 06:56:39;;;;;;;18.92;10.18;;;;;;;0.50;85.76;101924.06;5052456;28;20547;-72
2022/03/11 06:59:05;;;;;;;17.17;8.88;;;;;;;0.52;85.81;101924.84;5043915;28;20078;-73
2022/03/11 07:01:30;;;;;;;14.38;7.32;;;;;;;0.45;85.51;101907.78;5043449;28;20560;-72
2022/03/11 07:03:56;;;;;;;20.38;10.07;;;;;;;0.62;85.17;101927.94;5043619;28;20452;-73
2022/03/11 07:06:22;;;;;;;17.38;9.23;;;;;;;0.67;84.85;101918.19;5051138;28;20117;-74
2022/03/11 07:08:47;;;;;;;15.70;8.02;;;;;;;0.72;84.85;101921.47;5047198;28;20037;-74
2022/03/11 07:11:12;;;;;;;17.88;9.05;;;;;;;0.77;84.35;101932.53;5051157;28;20380;-72
2022/03/11 07:13:38;;;;;;;15.27;8.98;;;;;;;0.82;84.28;101920.19;5057496;28;20033;-74
2022/03/11 07:16:04;;;;;;;15.52;9.00;;;;;;;0.90;84.07;101919.06;5048071;28;20378;-73
2022/03/11 07:18:30;;;;;;;18.42;9.90;;;;;;;0.96;83.61;101927.47;5028654;28;20110;-75
2022/03/11 07:20:55;;;;;;;16.67;9.10;;;;;;;1.04;83.23;101919.34;5046774;28;20497;-73
2022/03/11 07:23:21;;;;;;;13.18;6.65;;;;;;;1.08;82.61;101913.09;5047091;28;20045;-73
2022/03/11 07:25:47;;;;;;;23.40;9.55;;;;;;;1.03;82.76;101897.69;5045851;28;20039;-73
2022/03/11 07:28:12;;;;;;;22.33;10.93;;;;;;;1.27;82.27;101920.16;5046497;28;20025;-73
2022/03/11 07:30:38;;;;;;;17.10;8.63;;;;;;;1.32;81.92;101898.25;5046964;28;20029;-73
2022/03/11 07:33:03;;;;;;;17.92;9.48;;;;;;;1.44;81.69;101913.34;5045780;28;20693;-73
2022/03/11 07:35:29;;;;;;;16.80;8.23;;;;;;;1.52;80.92;101905.19;5057604;28;20050;-74
2022/03/11 07:37:54;;;;;;;17.23;8.30;;;;;;;1.60;80.69;101892.72;5047969;28;20024;-75
2022/03/11 07:40:19;;;;;;;19.90;10.23;;;;;;;1.70;80.08;101897.50;5045851;28;20600;-73
2022/03/11 07:42:45;;;;;;;14.05;7.55;;;;;;;1.75;80.10;101898.16;5047463;28;20025;-72
2022/03/11 07:45:15;;;;;;;19.45;9.45;;;;;;;1.81;79.83;101897.91;5049333;28;20016;-73
2022/03/11 07:47:41;;;;;;;16.63;8.40;;;;;;;1.97;79.46;101891.09;5045802;28;20032;-73
2022/03/11 07:50:07;;;;;;;20.20;10.43;;;;;;;2.00;78.61;101896.19;5046048;28;20021;-73
2022/03/11 07:52:33;;;;;;;17.70;9.10;;;;;;;1.95;77.68;101843.44;5048421;28;20033;-73
2022/03/11 07:54:58;;;;;;;15.50;8.95;;;;;;;2.50;76.94;101894.75;5030245;28;20370;-73
2022/03/11 07:57:24;;;;;;;14.43;8.52;;;;;;;2.84;75.66;101900.97;5055750;28;20032;-73
2022/03/11 07:59:49;;;;;;;17.48;9.25;;;;;;;3.07;75.03;101889.41;5047380;28;20096;-73
2022/03/11 08:02:17;;;;;;;15.65;8.38;;;;;;;3.06;73.29;101909.44;5047833;28;20055;-73
2022/03/11 08:04:42;;;;;;;13.45;7.85;;;;;;;3.29;72.92;101895.25;5048827;28;20114;-74
2022/03/11 08:07:11;;;;;;;21.23;11.32;;;;;;;3.60;72.15;101891.09;5048456;28;20480;-73
2022/03/11 08:09:38;;;;;;;18.73;10.05;;;;;;;4.02;71.08;101886.28;5048781;28;20355;-73
2022/03/11 08:12:04;;;;;;;17.60;9.35;;;;;;;4.19;69.96;101864.50;5048921;28;20411;-74
2022/03/11 08:14:31;;;;;;;15.88;8.88;;;;;;;4.56;68.71;101899.06;5048589;28;20411;-73
2022/03/11 08:16:56;;;;;;;18.10;10.40;;;;;;;4.90;67.78;101893.63;5060065;28;20024;-73
2022/03/11 08:19:23;;;;;;;16.65;10.10;;;;;;;4.99;66.38;101897.47;5048364;28;20032;-74
2022/03/11 08:21:50;;;;;;;19.10;10.20;;;;;;;4.93;66.78;101893.44;5049375;28;20104;-73
2022/03/11 08:24:15;;;;;;;16.23;10.40;;;;;;;5.11;65.62;101895.91;5056239;28;20045;-73
2022/03/11 08:26:41;;;;;;;18.13;10.88;;;;;;;5.19;65.64;101890.25;5048603;28;20029;-73
2022/03/11 08:29:06;;;;;;;15.98;9.85;;;;;;;5.46;65.05;101895.63;5047640;28;20559;-73
2022/03/11 08:31:32;;;;;;;19.55;11.23;;;;;;;5.70;64.54;101878.44;5049613;28;20028;-73
2022/03/11 08:33:58;;;;;;;17.58;10.45;;;;;;;5.83;63.12;101872.47;5053170;28;20025;-73
2022/03/11 08:36:23;;;;;;;18.58;11.55;;;;;;;5.96;62.75;101857.69;5029668;28;20128;-75
2022/03/11 08:38:49;;;;;;;16.95;10.50;;;;;;;5.66;63.27;101850.78;5017180;28;20129;-73
2022/03/11 08:41:16;;;;;;;22.83;12.20;;;;;;;6.09;62.98;101874.34;5048079;28;20085;-73
2022/03/11 08:43:42;;;;;;;16.02;10.98;;;;;;;6.33;63.03;101873.75;5047204;28;20028;-73
2022/03/11 08:46:09;;;;;;;14.90;9.80;;;;;;;6.34;62.25;101885.94;5050098;28;20574;-73
2022/03/11 08:48:36;;;;;;;21.20;10.77;;;;;;;6.17;61.49;101877.31;5059872;28;20021;-73
2022/03/11 08:51:02;;;;;;;15.25;10.10;;;;;;;6.72;60.55;101887.88;5054980;28;20029;-73
2022/03/11 08:53:27;;;;;;;18.23;10.90;;;;;;;7.02;58.84;101869.28;5048060;28;20492;-73
2022/03/11 08:55:52;;;;;;;16.63;10.30;;;;;;;6.74;58.58;101847.47;5049403;28;20037;-73
2022/03/11 08:58:19;;;;;;;16.80;10.48;;;;;;;6.80;59.02;101854.94;5058296;28;20036;-73
2022/03/11 09:00:44;;;;;;;18.13;11.25;;;;;;;6.46;59.26;101845.78;5029613;28;20040;-73
2022/03/11 09:03:10;;;;;;;18.85;10.90;;;;;;;6.87;59.17;101857.16;5055135;28;20074;-73
2022/03/11 09:05:37;;;;;;;18.15;10.20;;;;;;;6.92;58.40;101853.28;5052104;28;20193;-73
2022/03/11 09:08:03;;;;;;;19.05;11.93;;;;;;;7.00;58.33;101848.38;5052236;28;20033;-73
2022/03/11 09:10:29;;;;;;;21.77;11.60;;;;;;;7.55;57.23;101848.19;5051145;28;20028;-73
2022/03/11 09:12:54;;;;;;;34.55;11.18;;;;;;;7.28;56.48;101853.56;5049823;28;20037;-73
2022/03/11 09:15:20;;;;;;;15.43;10.27;;;;;;;6.87;57.25;101847.50;5052337;28;20650;-73
2022/03/11 09:17:45;;;;;;;17.98;11.02;;;;;;;6.94;57.15;101827.78;5052619;28;20025;-73
2022/03/11 09:20:12;;;;;;;21.50;12.05;;;;;;;7.34;57.46;101842.66;5050820;28;20079;-73
2022/03/11 09:22:39;;;;;;;18.85;10.00;;;;;;;7.27;56.91;101815.94;5052471;28;20118;-73
2022/03/11 09:25:07;;;;;;;17.75;10.90;;;;;;;7.79;56.68;101838.59;5055471;28;20029;-73
2022/03/11 09:27:33;;;;;;;17.98;11.43;;;;;;;8.03;55.34;101819.41;5053937;28;20028;-73
2022/03/11 09:29:59;;;;;;;19.50;11.60;;;;;;;8.01;54.82;101816.94;5054805;28;20025;-73
2022/03/11 09:32:25;;;;;;;16.67;9.93;;;;;;;7.82;55.21;101803.41;5053952;28;20599;-73
2022/03/11 09:34:51;;;;;;;15.52;10.10;;;;;;;8.05;53.90;101822.78;5062504;28;20062;-73
2022/03/11 09:37:17;;;;;;;19.67;11.32;;;;;;;8.79;52.80;101815.66;5053969;28;20044;-73
2022/03/11 09:39:42;;;;;;;19.95;11.85;;;;;;;8.16;53.18;101809.69;5052721;28;20182;-73
2022/03/11 09:42:09;;;;;;;16.23;10.88;;;;;;;8.41;53.54;101807.97;5049820;28;20071;-73
2022/03/11 09:44:34;;;;;;;15.30;10.35;;;;;;;8.93;52.06;101798.84;5061177;28;20388;-73
2022/03/11 09:47:00;;;;;;;21.48;11.23;;;;;;;8.49;52.97;101797.69;5061301;28;20027;-73
2022/03/11 09:49:26;;;;;;;18.80;10.50;;;;;;;8.34;52.69;101806.69;5056357;28;20028;-73
2022/03/11 09:51:52;;;;;;;22.63;11.75;;;;;;;8.44;53.05;101797.22;5050697;28;20017;-75
2022/03/11 09:54:17;;;;;;;16.33;10.70;;;;;;;8.21;52.54;101777.84;5060405;28;20032;-73
2022/03/11 09:56:45;;;;;;;16.00;10.38;;;;;;;8.77;52.62;101778.06;5053835;28;20497;-74
2022/03/11 09:59:12;;;;;;;15.43;10.68;;;;;;;8.84;50.56;101767.91;5058713;28;20495;-74
2022/03/11 10:01:42;;;;;;;16.63;11.40;;;;;;;9.13;51.14;101767.50;5055528;28;20025;-74
2022/03/11 10:04:08;;;;;;;20.17;12.13;;;;;;;8.99;51.15;101753.63;5056178;28;20028;-75
2022/03/11 10:06:43;;;;;;;14.35;10.52;;;;;;;9.39;49.88;101755.78;5052566;28;20025;-73
2022/03/11 10:09:17;;;;;;;16.88;10.55;;;;;;;8.96;49.94;101767.00;5045814;28;20239;-74
2022/03/11 10:11:46;;;;;;;18.52;10.15;;;;;;;9.66;50.77;101744.03;5051267;28;20016;-74
2022/03/11 10:14:12;;;;;;;16.63;10.50;;;;;;;9.18;49.86;101744.28;5035516;28;20065;-75
2022/03/11 10:16:38;;;;;;;17.25;10.48;;;;;;;9.43;50.08;101744.06;5052684;28;20136;-73
2022/03/11 10:19:06;;;;;;;25.30;11.18;;;;;;;9.18;49.60;101749.56;5051649;28;20032;-74
2022/03/11 10:21:34;;;;;;;19.48;10.65;;;;;;;9.23;49.33;101742.97;5049864;28;20032;-74
2022/03/11 10:24:02;;;;;;;20.15;10.75;;;;;;;10.89;47.84;101757.75;5057283;28;20127;-73
2022/03/11 10:26:31;;;;;;;16.83;11.88;;;;;;;10.47;46.84;101758.56;5060385;28;20037;-73
2022/03/11 10:28:58;;;;;;;14.52;8.98;;;;;;;10.37;48.24;101755.00;5054384;28;20036;-73
2022/03/11 10:31:34;;;;;;;15.52;10.75;;;;;;;10.49;47.30;101742.59;5055772;28;20033;-73
2022/03/11 10:34:12;;;;;;;16.23;10.48;;;;;;;10.26;46.91;101747.94;5054452;28;20123;-73
2022/03/11 10:36:44;;;;;;;17.90;11.48;;;;;;;10.82;46.65;101746.00;5034493;28;20039;-73
2022/03/11 10:39:23;;;;;;;18.77;10.40;;;;;;;9.68;47.38;101763.19;5053319;28;20032;-73
2022/03/11 10:41:50;;;;;;;18.33;9.88;;;;;;;10.28;47.37;101724.91;5054021;28;20039;-73
2022/03/11 10:44:25;;;;;;;15.35;10.70;;;;;;;11.81;45.63;101744.50;5053541;28;20028;-75
2022/03/11 10:46:51;;;;;;;14.75;10.25;;;;;;;11.07;44.46;101745.59;5054491;28;20017;-75
2022/03/11 10:49:31;;;;;;;15.45;9.77;;;;;;;11.66;43.79;101748.50;5056270;28;20036;-74
2022/03/11 10:51:58;;;;;;;15.38;10.25;;;;;;;11.76;44.05;101732.63;5058653;28;20037;-74
2022/03/11 10:54:26;;;;;;;20.17;11.05;;;;;;;11.66;44.04;101749.31;5055756;28;20386;-74
2022/03/11 10:56:52;;;;;;;15.68;9.77;;;;;;;11.09;43.38;101725.19;5055134;28;20389;-73
2022/03/11 10:59:17;;;;;;;14.15;10.15;;;;;;;11.59;43.40;101744.72;5057820;28;20029;-74
2022/03/11 11:01:44;;;;;;;16.45;10.25;;;;;;;11.46;43.31;101729.09;5056223;28;20034;-74
2022/03/11 11:04:12;;;;;;;13.95;9.30;;;;;;;10.94;44.38;101742.34;5050886;28;20082;-75
2022/03/11 11:06:38;;;;;;;14.55;9.25;;;;;;;10.16;44.52;101735.63;5034287;28;20031;-75
2022/03/11 11:09:05;;;;;;;22.17;11.00;;;;;;;10.62;44.60;101711.56;5055356;28;20472;-75
2022/03/11 11:11:32;;;;;;;15.50;10.00;;;;;;;10.35;45.85;101725.28;5052465;28;20401;-75
2022/03/11 11:14:07;;;;;;;19.80;10.32;;;;;;;10.47;45.05;101720.75;5052063;28;20021;-75
2022/03/11 11:16:39;;;;;;;13.70;9.38;;;;;;;9.51;46.38;101717.09;5051535;28;20037;-75